Time;durP1;ratioP1;P1;durP2;ratioP2;P2;SDS_P1;SDS_P2;PMS_P1;PMS_P2;Temp;Humidity;BMP_temperature;BMP_pressure;BME280_temperature;BME280_humidity;BME280_pressure;Samples;Min_cycle;Max_cycle;Signal;HPM_P1;HPM_P2
2023/07/26 00:02:09;;;;;;;;;;;;;;;30.95;38.71;99373.36;102290;1300;61561;-83
2023/07/26 00:04:34;;;;;;;;;;;;;;;30.96;38.73;99369.83;102248;1307;61508;-82
2023/07/26 00:07:00;;;;;;;;;;;;;;;30.95;38.66;99366.11;102661;1300;61441;-82
2023/07/26 00:09:26;;;;;;;;;;;;;;;30.96;38.64;99362.55;102328;1306;61330;-84
2023/07/26 00:11:51;;;;;;;;;;;;;;;30.95;38.67;99358.07;102417;1305;65068;-84
2023/07/26 00:14:16;;;;;;;;;;;;;;;30.95;38.78;99349.94;102395;1300;61475;-83
2023/07/26 00:16:42;;;;;;;;;;;;;;;30.95;38.70;99346.83;102482;1305;61423;-83
2023/07/26 00:19:07;;;;;;;;;;;;;;;30.95;38.80;99346.71;102488;1300;61498;-83
2023/07/26 00:21:33;;;;;;;;;;;;;;;30.95;38.74;99343.27;102497;1300;61408;-82
2023/07/26 00:23:58;;;;;;;;;;;;;;;30.95;38.77;99345.58;102524;1300;61472;-81
2023/07/26 00:26:25;;;;;;;;;;;;;;;30.95;38.78;99349.05;102349;1301;61491;-82
2023/07/26 00:28:50;;;;;;;;;;;;;;;30.95;38.84;99351.06;102301;1300;61409;-82
2023/07/26 00:31:16;;;;;;;;;;;;;;;30.94;38.75;99354.92;102402;1299;61438;-82
2023/07/26 00:33:41;;;;;;;;;;;;;;;30.95;38.76;99352.75;102295;1308;61441;-82
2023/07/26 00:36:07;;;;;;;;;;;;;;;30.94;38.83;99350.06;102352;1300;61426;-82
2023/07/26 00:38:32;;;;;;;;;;;;;;;30.95;38.83;99346.38;102445;1300;61406;-82
2023/07/26 00:40:57;;;;;;;;;;;;;;;30.94;38.81;99348.59;102494;1303;61355;-82
2023/07/26 00:43:23;;;;;;;;;;;;;;;30.93;38.78;99347.96;102436;1300;61396;-82
2023/07/26 00:45:48;;;;;;;;;;;;;;;30.94;39.03;99346.45;102597;1300;61528;-82
2023/07/26 00:48:14;;;;;;;;;;;;;;;30.93;38.87;99341.05;102319;1300;63888;-82
2023/07/26 00:50:40;;;;;;;;;;;;;;;30.94;38.85;99338.28;102273;1300;65760;-83
2023/07/26 00:53:07;;;;;;;;;;;;;;;30.94;38.91;99334.09;102420;1300;61374;-82
2023/07/26 00:55:32;;;;;;;;;;;;;;;30.94;38.88;99330.23;102298;1300;62077;-82
2023/07/26 00:57:58;;;;;;;;;;;;;;;30.93;38.89;99325.82;102585;1300;61416;-82
2023/07/26 01:00:23;;;;;;;;;;;;;;;30.93;38.93;99317.86;102426;1300;61434;-82
2023/07/26 01:02:49;;;;;;;;;;;;;;;30.93;38.95;99316.93;102324;1299;61418;-83
2023/07/26 01:05:14;;;;;;;;;;;;;;;30.93;38.99;99317.62;102228;1305;61261;-82
2023/07/26 01:07:40;;;;;;;;;;;;;;;30.93;38.91;99318.20;102261;1306;61441;-82
2023/07/26 01:10:11;;;;;;;;;;;;;;;30.92;38.93;99316.61;102137;1306;61419;-82
2023/07/26 01:12:37;;;;;;;;;;;;;;;30.93;38.89;99314.60;102219;1304;65692;-82
2023/07/26 01:15:06;;;;;;;;;;;;;;;30.93;38.99;99313.13;102217;1305;61593;-82
2023/07/26 01:17:31;;;;;;;;;;;;;;;30.92;39.07;99310.88;102292;1305;61524;-82
2023/07/26 01:19:57;;;;;;;;;;;;;;;30.93;38.88;99311.70;102418;1308;61402;-82
2023/07/26 01:22:22;;;;;;;;;;;;;;;30.93;38.97;99307.50;102166;1306;61684;-82
2023/07/26 01:24:47;;;;;;;;;;;;;;;30.93;38.97;99307.89;102211;1304;61387;-82
2023/07/26 01:27:13;;;;;;;;;;;;;;;30.93;39.00;99308.27;102231;1305;61620;-82
2023/07/26 01:29:38;;;;;;;;;;;;;;;30.92;39.13;99307.92;102188;1305;61406;-83
2023/07/26 01:32:04;;;;;;;;;;;;;;;30.92;38.91;99307.55;102186;1306;61609;-83
2023/07/26 01:34:29;;;;;;;;;;;;;;;30.92;39.02;99308.11;102126;1308;61578;-82
2023/07/26 01:36:55;;;;;;;;;;;;;;;30.93;39.03;99306.97;102291;1300;61396;-82
2023/07/26 01:39:20;;;;;;;;;;;;;;;30.93;39.00;99306.63;102528;1300;61338;-82
2023/07/26 01:41:46;;;;;;;;;;;;;;;30.93;39.14;99308.98;102442;1300;61506;-82
2023/07/26 01:44:12;;;;;;;;;;;;;;;30.92;39.12;99308.69;102250;1300;61354;-82
2023/07/26 01:46:38;;;;;;;;;;;;;;;30.92;38.98;99303.61;102473;1302;61434;-82
2023/07/26 01:49:03;;;;;;;;;;;;;;;30.92;39.02;99299.63;102475;1300;61470;-82
2023/07/26 01:51:29;;;;;;;;;;;;;;;30.92;39.02;99296.52;102278;1300;61494;-82
2023/07/26 01:53:54;;;;;;;;;;;;;;;30.92;39.09;99296.54;102494;1305;61338;-83
2023/07/26 01:56:20;;;;;;;;;;;;;;;30.92;39.13;99290.25;102275;1300;61511;-82
2023/07/26 01:58:45;;;;;;;;;;;;;;;30.91;39.02;99291.00;102487;1300;61414;-82
2023/07/26 02:01:10;;;;;;;;;;;;;;;30.91;39.04;99291.38;102261;1305;61391;-82
2023/07/26 02:03:36;;;;;;;;;;;;;;;30.91;39.02;99290.45;102485;1299;61453;-82
2023/07/26 02:06:01;;;;;;;;;;;;;;;30.91;39.18;99289.73;102497;1299;61286;-82
2023/07/26 02:08:27;;;;;;;;;;;;;;;30.91;39.16;99286.85;102327;1305;61357;-82
2023/07/26 02:10:52;;;;;;;;;;;;;;;30.91;39.08;99291.09;102443;1305;61463;-82
2023/07/26 02:13:18;;;;;;;;;;;;;;;30.91;39.07;99294.36;102295;1300;62963;-82
2023/07/26 02:15:43;;;;;;;;;;;;;;;30.91;39.14;99299.27;102455;1300;61509;-82
2023/07/26 02:18:08;;;;;;;;;;;;;;;30.91;39.15;99301.44;102484;1300;61450;-82
2023/07/26 02:20:34;;;;;;;;;;;;;;;30.91;39.14;99301.94;102308;1300;61473;-82
2023/07/26 02:23:00;;;;;;;;;;;;;;;30.90;39.15;99306.39;102336;1300;61603;-82
2023/07/26 02:25:26;;;;;;;;;;;;;;;30.90;39.16;99309.74;102314;1300;61985;-82
2023/07/26 02:27:51;;;;;;;;;;;;;;;30.90;39.15;99305.35;102649;1300;61466;-82
2023/07/26 02:30:17;;;;;;;;;;;;;;;30.91;39.25;99306.94;102479;1300;61375;-82
2023/07/26 02:32:42;;;;;;;;;;;;;;;30.90;39.17;99309.16;102272;1300;61428;-82
2023/07/26 02:35:08;;;;;;;;;;;;;;;30.90;39.23;99307.69;102552;1305;61525;-82
2023/07/26 02:37:34;;;;;;;;;;;;;;;30.90;39.26;99308.23;102449;1300;61415;-82
2023/07/26 02:40:00;;;;;;;;;;;;;;;30.91;39.29;99305.30;102326;1300;61923;-82
2023/07/26 02:42:26;;;;;;;;;;;;;;;30.90;39.32;99301.52;102622;1300;61480;-82
2023/07/26 02:44:52;;;;;;;;;;;;;;;30.90;39.31;99299.23;102479;1300;63907;-82
2023/07/26 02:47:18;;;;;;;;;;;;;;;30.90;39.31;99308.06;102277;1300;65909;-82
2023/07/26 02:49:43;;;;;;;;;;;;;;;30.90;39.24;99309.70;102396;1300;61994;-83
2023/07/26 02:52:08;;;;;;;;;;;;;;;30.90;39.29;99304.08;102439;1300;61456;-82
2023/07/26 02:54:34;;;;;;;;;;;;;;;30.90;39.21;99307.19;102471;1305;61441;-82
2023/07/26 02:56:59;;;;;;;;;;;;;;;30.90;39.29;99308.86;102526;1302;61327;-82
2023/07/26 02:59:25;;;;;;;;;;;;;;;30.90;39.34;99308.86;102501;1299;61881;-82
2023/07/26 03:01:50;;;;;;;;;;;;;;;30.90;39.38;99304.67;102307;1302;61445;-83
2023/07/26 03:04:15;;;;;;;;;;;;;;;30.90;39.26;99310.30;102535;1300;61427;-83
2023/07/26 03:06:41;;;;;;;;;;;;;;;30.90;39.28;99308.65;102483;1300;61419;-83
2023/07/26 03:09:06;;;;;;;;;;;;;;;30.90;39.34;99304.66;102535;1305;63915;-82
2023/07/26 03:11:32;;;;;;;;;;;;;;;30.89;39.29;99304.39;102266;1299;62189;-82
2023/07/26 03:13:57;;;;;;;;;;;;;;;30.89;39.30;99304.25;102337;1300;61423;-83
2023/07/26 03:16:23;;;;;;;;;;;;;;;30.89;39.28;99307.64;102340;1300;61806;-82
2023/07/26 03:18:48;;;;;;;;;;;;;;;30.89;39.37;99311.25;102543;1300;61348;-82
2023/07/26 03:21:13;;;;;;;;;;;;;;;30.89;39.42;99311.80;102508;1300;62000;-82
2023/07/26 03:23:39;;;;;;;;;;;;;;;30.89;39.40;99321.23;102327;1300;61441;-82
2023/07/26 03:26:04;;;;;;;;;;;;;;;30.89;39.35;99327.97;102416;1300;61390;-82
2023/07/26 03:28:30;;;;;;;;;;;;;;;30.90;39.29;99330.10;102275;1299;61402;-82
2023/07/26 03:30:55;;;;;;;;;;;;;;;30.90;39.40;99326.46;102288;1303;61424;-82
2023/07/26 03:33:21;;;;;;;;;;;;;;;30.90;39.36;99322.81;102245;1308;61294;-82
2023/07/26 03:35:46;;;;;;;;;;;;;;;30.90;39.40;99318.63;102510;1303;61594;-82
2023/07/26 03:38:12;;;;;;;;;;;;;;;30.90;39.44;99324.46;102243;1303;61953;-82
2023/07/26 03:40:39;;;;;;;;;;;;;;;30.90;39.48;99329.52;102255;1303;61447;-83
2023/07/26 03:43:05;;;;;;;;;;;;;;;30.90;39.47;99320.40;102264;1303;61620;-82
2023/07/26 03:45:30;;;;;;;;;;;;;;;30.90;39.47;99318.59;102369;1307;61469;-82
2023/07/26 03:47:56;;;;;;;;;;;;;;;30.90;39.45;99328.60;102208;1306;66909;-82
2023/07/26 03:50:21;;;;;;;;;;;;;;;30.90;39.52;99317.54;102247;1303;61406;-82
2023/07/26 03:52:47;;;;;;;;;;;;;;;30.91;39.59;99337.40;102271;1303;61450;-82
2023/07/26 03:55:12;;;;;;;;;;;;;;;30.90;39.45;99342.56;102418;1303;61489;-82
2023/07/26 03:57:38;;;;;;;;;;;;;;;30.91;39.49;99333.80;102219;1308;61502;-82
2023/07/26 04:00:04;;;;;;;;;;;;;;;30.90;39.59;99328.02;102391;1303;61851;-82
2023/07/26 04:02:30;;;;;;;;;;;;;;;30.91;39.53;99333.59;102279;1301;61451;-82
2023/07/26 04:04:56;;;;;;;;;;;;;;;30.91;39.47;99347.59;102240;1300;61443;-83
2023/07/26 04:07:21;;;;;;;;;;;;;;;30.91;39.37;99324.88;102234;1305;61438;-83
2023/07/26 04:09:46;;;;;;;;;;;;;;;30.90;39.49;99312.43;102489;1300;61515;-82
2023/07/26 04:12:12;;;;;;;;;;;;;;;30.90;39.46;99315.48;102549;1305;61431;-83
2023/07/26 04:14:37;;;;;;;;;;;;;;;30.90;39.48;99317.34;102529;1300;61419;-83
2023/07/26 04:17:03;;;;;;;;;;;;;;;30.90;39.53;99313.02;102269;1305;61437;-82
2023/07/26 04:19:28;;;;;;;;;;;;;;;30.89;39.52;99321.98;102365;1299;61498;-82
2023/07/26 04:21:53;;;;;;;;;;;;;;;30.89;39.44;99331.95;102436;1300;61427;-84
2023/07/26 04:24:19;;;;;;;;;;;;;;;30.90;39.39;99322.82;102356;1306;61515;-83
2023/07/26 04:26:44;;;;;;;;;;;;;;;30.90;39.38;99306.31;102310;1300;61288;-82
2023/07/26 04:29:10;;;;;;;;;;;;;;;30.89;39.52;99315.81;102448;1299;61419;-83
2023/07/26 04:31:35;;;;;;;;;;;;;;;30.90;39.46;99338.49;102411;1305;61348;-83
2023/07/26 04:34:01;;;;;;;;;;;;;;;30.89;39.36;99360.74;102388;1305;61436;-83
2023/07/26 04:36:26;;;;;;;;;;;;;;;30.89;39.43;99362.92;102253;1299;65945;-83
2023/07/26 04:38:51;;;;;;;;;;;;;;;30.88;39.37;99352.95;102452;1300;61415;-83
2023/07/26 04:41:17;;;;;;;;;;;;;;;30.88;39.44;99349.35;102263;1299;61508;-82
2023/07/26 04:43:42;;;;;;;;;;;;;;;30.89;39.39;99347.48;102389;1300;61327;-83
2023/07/26 04:46:08;;;;;;;;;;;;;;;30.89;39.40;99339.70;102580;1300;61867;-82
2023/07/26 04:48:33;;;;;;;;;;;;;;;30.88;39.30;99330.15;102281;1305;61401;-82
2023/07/26 04:50:58;;;;;;;;;;;;;;;30.89;39.27;99311.00;102461;1300;61435;-82
2023/07/26 04:53:24;;;;;;;;;;;;;;;30.89;39.36;99292.46;102264;1300;61489;-82
2023/07/26 04:55:50;;;;;;;;;;;;;;;30.89;39.46;99295.20;102550;1300;61536;-82
2023/07/26 04:58:15;;;;;;;;;;;;;;;30.89;39.41;99311.16;102286;1300;63701;-82
2023/07/26 05:00:41;;;;;;;;;;;;;;;30.88;39.21;99304.66;102441;1304;61941;-82
2023/07/26 05:03:07;;;;;;;;;;;;;;;30.88;39.24;99297.79;102348;1300;61936;-82
2023/07/26 05:05:33;;;;;;;;;;;;;;;30.88;39.36;99299.64;102317;1300;61501;-82
2023/07/26 05:07:59;;;;;;;;;;;;;;;30.88;39.31;99307.98;102456;1302;61410;-82
2023/07/26 05:10:25;;;;;;;;;;;;;;;30.87;39.33;99327.13;102509;1299;61318;-82
2023/07/26 05:12:53;;;;;;;;;;;;;;;30.87;39.34;99346.96;102536;1300;65661;-82
2023/07/26 05:15:19;;;;;;;;;;;;;;;30.87;39.41;99364.09;102273;1300;61514;-83
2023/07/26 05:17:44;;;;;;;;;;;;;;;30.86;39.34;99354.54;102497;1300;61296;-82
2023/07/26 05:20:11;;;;;;;;;;;;;;;30.87;39.29;99343.27;102422;1305;61802;-82
2023/07/26 05:22:36;;;;;;;;;;;;;;;30.86;39.25;99336.06;102271;1300;61366;-82
2023/07/26 05:25:02;;;;;;;;;;;;;;;30.86;39.22;99336.40;102425;1305;62174;-83
2023/07/26 05:27:29;;;;;;;;;;;;;;;30.86;39.29;99345.04;102438;1299;61432;-82
2023/07/26 05:29:57;;;;;;;;;;;;;;;30.85;39.26;99345.41;102601;1300;61456;-82
2023/07/26 05:32:26;;;;;;;;;;;;;;;30.85;39.30;99345.62;102446;1300;63680;-83
2023/07/26 05:34:55;;;;;;;;;;;;;;;30.85;39.35;99347.80;102437;1300;65868;-82
2023/07/26 05:37:21;;;;;;;;;;;;;;;30.86;39.25;99352.28;102410;1304;61457;-82
2023/07/26 05:39:50;;;;;;;;;;;;;;;30.85;39.26;99356.48;102896;1300;61316;-82
2023/07/26 05:42:15;;;;;;;;;;;;;;;30.85;39.26;99356.85;102396;1300;62791;-82
2023/07/26 05:44:42;;;;;;;;;;;;;;;30.86;39.33;99359.70;102388;1300;61900;-82
2023/07/26 05:47:10;;;;;;;;;;;;;;;30.86;39.28;99362.70;102356;1305;61233;-82
2023/07/26 05:49:35;;;;;;;;;;;;;;;30.86;39.28;99362.00;102631;1299;61344;-82
2023/07/26 05:52:00;;;;;;;;;;;;;;;30.86;39.30;99359.66;102310;1301;61864;-81
2023/07/26 05:54:26;;;;;;;;;;;;;;;30.86;39.24;99358.06;102202;1305;61412;-82
2023/07/26 05:56:51;;;;;;;;;;;;;;;30.87;39.32;99349.75;102508;1300;62044;-82
2023/07/26 05:59:17;;;;;;;;;;;;;;;30.87;39.14;99342.64;102548;1300;61428;-82
2023/07/26 06:01:42;;;;;;;;;;;;;;;30.87;39.35;99342.10;102474;1300;61412;-82
2023/07/26 06:04:07;;;;;;;;;;;;;;;30.88;39.21;99346.05;102506;1305;61775;-81
2023/07/26 06:06:33;;;;;;;;;;;;;;;30.88;39.22;99348.56;102366;1300;61510;-82
2023/07/26 06:08:58;;;;;;;;;;;;;;;30.87;39.22;99350.77;102475;1300;61389;-82
2023/07/26 06:11:24;;;;;;;;;;;;;;;30.88;39.26;99346.83;102691;1300;61394;-82
2023/07/26 06:13:49;;;;;;;;;;;;;;;30.90;39.17;99353.38;102578;1300;61438;-81
2023/07/26 06:16:15;;;;;;;;;;;;;;;30.90;39.17;99348.98;102559;1300;61393;-81
2023/07/26 06:18:40;;;;;;;;;;;;;;;30.91;39.17;99355.93;102667;1300;61310;-82
2023/07/26 06:21:06;;;;;;;;;;;;;;;30.92;39.17;99351.40;102483;1305;61573;-82
2023/07/26 06:23:31;;;;;;;;;;;;;;;30.92;39.16;99355.50;102718;1299;61342;-82
2023/07/26 06:25:57;;;;;;;;;;;;;;;30.93;39.17;99357.23;102734;1300;61431;-82
2023/07/26 06:28:22;;;;;;;;;;;;;;;30.94;39.17;99354.63;102586;1300;61330;-82
2023/07/26 06:30:48;;;;;;;;;;;;;;;30.95;39.05;99358.99;102628;1300;61482;-82
2023/07/26 06:33:13;;;;;;;;;;;;;;;30.95;39.01;99362.63;102732;1305;61344;-82
2023/07/26 06:35:39;;;;;;;;;;;;;;;30.96;39.12;99358.90;102534;1300;62118;-83
2023/07/26 06:38:04;;;;;;;;;;;;;;;30.97;39.19;99359.20;102592;1300;61428;-82
2023/07/26 06:40:30;;;;;;;;;;;;;;;30.97;39.11;99357.86;102799;1299;61399;-82
2023/07/26 06:42:55;;;;;;;;;;;;;;;30.97;38.99;99355.65;102684;1305;61362;-81
2023/07/26 06:45:21;;;;;;;;;;;;;;;30.98;39.01;99355.34;102813;1302;61857;-82
2023/07/26 06:47:46;;;;;;;;;;;;;;;30.98;39.04;99349.63;102878;1299;61303;-82
2023/07/26 06:50:12;;;;;;;;;;;;;;;31.00;39.07;99348.17;102977;1299;61431;-82
2023/07/26 06:52:38;;;;;;;;;;;;;;;31.01;39.02;99343.34;102519;1305;61463;-82
2023/07/26 06:55:04;;;;;;;;;;;;;;;31.01;38.94;99342.55;102601;1300;61448;-82
2023/07/26 06:57:29;;;;;;;;;;;;;;;31.02;39.03;99343.68;102876;1299;61422;-82
2023/07/26 06:59:55;;;;;;;;;;;;;;;31.03;38.88;99341.42;102423;1302;61658;-82
2023/07/26 07:02:20;;;;;;;;;;;;;;;31.03;38.96;99342.83;102434;1303;61328;-82
2023/07/26 07:04:46;;;;;;;;;;;;;;;31.04;38.90;99343.52;102608;1300;62467;-82
2023/07/26 07:07:12;;;;;;;;;;;;;;;31.04;38.89;99337.80;102577;1300;61520;-81
2023/07/26 07:09:37;;;;;;;;;;;;;;;31.04;38.87;99337.21;102184;1300;654566;-81
2023/07/26 07:12:03;;;;;;;;;;;;;;;31.05;38.82;99334.61;102593;1299;61434;-81
2023/07/26 07:14:28;;;;;;;;;;;;;;;31.06;38.70;99335.23;102643;1304;61294;-81
2023/07/26 07:16:54;;;;;;;;;;;;;;;31.06;38.82;99335.35;102672;1299;61322;-82
2023/07/26 07:19:19;;;;;;;;;;;;;;;31.06;38.72;99333.02;102586;1305;61552;-81
2023/07/26 07:21:45;;;;;;;;;;;;;;;31.07;38.94;99332.23;102651;1300;61422;-83
2023/07/26 07:24:10;;;;;;;;;;;;;;;31.07;38.77;99332.35;102718;1300;61409;-82
2023/07/26 07:26:36;;;;;;;;;;;;;;;31.08;38.89;99336.96;102918;1299;61404;-81
2023/07/26 07:29:01;;;;;;;;;;;;;;;31.08;38.80;99333.42;102860;1300;61412;-81
2023/07/26 07:31:27;;;;;;;;;;;;;;;31.09;38.71;99328.66;102841;1300;61387;-82
2023/07/26 07:33:52;;;;;;;;;;;;;;;31.09;38.87;99326.98;102832;1301;61412;-82
2023/07/26 07:36:19;;;;;;;;;;;;;;;31.09;38.86;99323.63;102804;1300;61390;-82
2023/07/26 07:38:47;;;;;;;;;;;;;;;31.10;38.79;99324.63;102570;1300;61431;-82
2023/07/26 07:41:13;;;;;;;;;;;;;;;31.11;38.79;99319.44;102707;1300;64269;-82
2023/07/26 07:43:39;;;;;;;;;;;;;;;31.12;38.83;99318.30;102556;1300;61367;-82
2023/07/26 07:46:04;;;;;;;;;;;;;;;31.13;38.88;99320.14;102529;1300;61464;-82
2023/07/26 07:48:30;;;;;;;;;;;;;;;31.13;38.94;99317.75;102879;1300;61348;-82
2023/07/26 07:50:56;;;;;;;;;;;;;;;31.13;38.96;99319.51;102749;1305;61515;-82
2023/07/26 07:53:23;;;;;;;;;;;;;;;31.13;38.96;99319.28;102380;1299;63800;-82
2023/07/26 07:55:50;;;;;;;;;;;;;;;31.14;38.92;99314.85;102803;1302;65963;-82
2023/07/26 07:58:16;;;;;;;;;;;;;;;31.14;38.81;99318.70;102482;1300;61511;-82
2023/07/26 08:00:42;;;;;;;;;;;;;;;31.14;38.82;99319.55;102637;1300;61407;-82
2023/07/26 08:03:07;;;;;;;;;;;;;;;31.14;38.79;99315.02;102664;1302;62098;-82
2023/07/26 08:05:35;;;;;;;;;;;;;;;31.15;38.86;99315.48;102520;1303;62985;-82
2023/07/26 08:08:01;;;;;;;;;;;;;;;31.15;38.74;99314.73;102628;1300;61431;-82
2023/07/26 08:10:26;;;;;;;;;;;;;;;31.15;38.66;99309.12;102827;1299;61792;-82
2023/07/26 08:12:52;;;;;;;;;;;;;;;31.16;38.78;99307.02;102867;1304;61422;-82
2023/07/26 08:15:17;;;;;;;;;;;;;;;31.16;38.75;99307.30;103067;1300;63696;-82
2023/07/26 08:17:42;;;;;;;;;;;;;;;31.16;38.71;99311.50;103004;1304;62996;-82
2023/07/26 08:20:08;;;;;;;;;;;;;;;31.17;38.69;99310.66;103044;1300;61402;-82
2023/07/26 08:22:34;;;;;;;;;;;;;;;31.18;38.70;99309.81;103037;1300;61431;-81
2023/07/26 08:24:59;;;;;;;;;;;;;;;31.19;38.59;99307.30;102694;1305;61428;-82
2023/07/26 08:27:25;;;;;;;;;;;;;;;31.19;38.55;99301.77;102758;1300;63823;-82
2023/07/26 08:29:50;;;;;;;;;;;;;;;31.20;38.45;99299.48;102715;1304;61410;-82
2023/07/26 08:32:17;;;;;;;;;;;;;;;31.21;38.56;99298.08;102886;1300;61344;-82
2023/07/26 08:34:45;;;;;;;;;;;;;;;31.22;38.41;99299.23;103222;1300;61344;-82
2023/07/26 08:37:10;;;;;;;;;;;;;;;31.22;38.29;99299.15;103031;1300;61413;-82
2023/07/26 08:39:36;;;;;;;;;;;;;;;31.23;38.29;99297.90;102988;1305;61796;-82
2023/07/26 08:42:02;;;;;;;;;;;;;;;31.24;38.37;99301.67;102918;1300;61987;-82
2023/07/26 08:44:27;;;;;;;;;;;;;;;31.25;38.29;99302.09;103023;1305;61418;-82
2023/07/26 08:46:53;;;;;;;;;;;;;;;31.26;38.31;99301.77;102496;1305;61392;-82
2023/07/26 08:49:19;;;;;;;;;;;;;;;31.27;38.15;99302.32;102549;1304;61380;-82
2023/07/26 08:51:45;;;;;;;;;;;;;;;31.28;38.00;99300.73;102619;1300;61429;-82
2023/07/26 08:54:10;;;;;;;;;;;;;;;31.29;37.84;99297.92;102386;1305;61344;-82
2023/07/26 08:56:36;;;;;;;;;;;;;;;31.29;37.73;99293.85;102507;1300;61410;-82
2023/07/26 08:59:02;;;;;;;;;;;;;;;31.30;37.79;99293.02;102544;1300;61511;-82
2023/07/26 09:01:27;;;;;;;;;;;;;;;31.31;37.77;99292.42;102673;1300;63970;-82
2023/07/26 09:03:53;;;;;;;;;;;;;;;31.31;37.60;99291.69;102624;1300;62063;-82
2023/07/26 09:06:19;;;;;;;;;;;;;;;31.31;37.53;99291.58;102428;1307;61521;-82
2023/07/26 09:08:46;;;;;;;;;;;;;;;31.32;37.44;99288.56;102517;1302;61479;-82
2023/07/26 09:11:23;;;;;;;;;;;;;;;31.32;37.42;99284.33;102473;1302;61478;-82
2023/07/26 09:13:58;;;;;;;;;;;;;;;31.33;37.22;99285.36;102705;1303;74411;-82
2023/07/26 09:16:27;;;;;;;;;;;;;;;31.33;37.12;99285.61;102396;1302;61393;-82
2023/07/26 09:18:56;;;;;;;;;;;;;;;31.35;37.01;99281.80;102677;1302;61594;-83
2023/07/26 09:21:40;;;;;;;;;;;;;;;31.36;36.90;99283.64;102776;1302;63767;-82
2023/07/26 09:24:05;;;;;;;;;;;;;;;31.37;36.90;99282.77;102539;1303;65924;-82
2023/07/26 09:26:43;;;;;;;;;;;;;;;31.38;36.79;99279.41;102610;1303;61470;-82
2023/07/26 09:29:10;;;;;;;;;;;;;;;31.38;36.93;99275.33;102799;1309;61496;-82
2023/07/26 09:31:36;;;;;;;;;;;;;;;31.38;36.97;99270.80;102744;1308;63949;-82
2023/07/26 09:34:04;;;;;;;;;;;;;;;31.38;36.99;99274.83;102696;1303;61195;-82
2023/07/26 09:36:45;;;;;;;;;;;;;;;31.39;36.95;99277.55;102445;1303;61892;-82
2023/07/26 09:39:12;;;;;;;;;;;;;;;31.39;36.90;99273.69;102663;1300;61328;-82
2023/07/26 09:41:37;;;;;;;;;;;;;;;31.39;37.08;99268.98;103296;1305;63956;-82
2023/07/26 09:44:04;;;;;;;;;;;;;;;31.39;37.16;99266.86;103319;1300;61421;-83
2023/07/26 09:46:29;;;;;;;;;;;;;;;31.38;37.23;99264.21;103343;1300;61872;-82
2023/07/26 09:48:58;;;;;;;;;;;;;;;31.38;37.29;99262.78;102976;1300;61415;-82
2023/07/26 09:51:26;;;;;;;;;;;;;;;31.38;37.29;99260.23;103390;1300;64064;-82
2023/07/26 09:53:52;;;;;;;;;;;;;;;31.38;37.26;99255.20;102899;1300;65651;-82
2023/07/26 09:56:18;;;;;;;;;;;;;;;31.38;37.47;99253.06;103071;1302;61458;-82
2023/07/26 09:58:43;;;;;;;;;;;;;;;31.37;37.48;99242.20;102999;1300;61388;-82
2023/07/26 10:01:10;;;;;;;;;;;;;;;31.37;37.49;99237.83;103031;1301;61346;-82
2023/07/26 10:03:35;;;;;;;;;;;;;;;31.37;37.66;99237.30;102731;1301;61436;-82
2023/07/26 10:06:01;;;;;;;;;;;;;;;31.37;37.64;99240.06;102882;1300;61402;-82
2023/07/26 10:08:26;;;;;;;;;;;;;;;31.37;37.59;99240.65;102656;1300;61412;-83
2023/07/26 10:10:52;;;;;;;;;;;;;;;31.37;37.58;99237.75;102464;1300;61509;-82
2023/07/26 10:13:18;;;;;;;;;;;;;;;31.36;37.60;99238.91;102579;1305;61444;-82
2023/07/26 10:15:47;;;;;;;;;;;;;;;31.36;37.65;99234.27;102803;1300;61452;-83
2023/07/26 10:18:16;;;;;;;;;;;;;;;31.35;37.67;99236.34;102905;1302;61447;-82
2023/07/26 10:20:42;;;;;;;;;;;;;;;31.35;37.64;99241.99;102756;1302;61326;-82
2023/07/26 10:23:07;;;;;;;;;;;;;;;31.35;37.70;99245.48;102794;1303;61434;-82
2023/07/26 10:25:33;;;;;;;;;;;;;;;31.34;37.60;99244.10;102630;1300;61307;-81
2023/07/26 10:28:22;;;;;;;;;;;;;;;31.34;37.78;99239.23;102703;1300;61432;-82
2023/07/26 10:30:48;;;;;;;;;;;;;;;31.34;37.81;99237.05;102134;1310;61432;-82
2023/07/26 10:33:14;;;;;;;;;;;;;;;31.33;37.79;99238.55;102267;1308;61435;-81
2023/07/26 10:35:43;;;;;;;;;;;;;;;31.33;37.78;99231.34;102159;1308;65829;-81
2023/07/26 10:38:09;;;;;;;;;;;;;;;31.33;37.76;99228.83;102229;1311;62130;-81
2023/07/26 10:40:35;;;;;;;;;;;;;;;31.33;37.68;99226.47;102484;1309;61516;-82
2023/07/26 10:43:15;;;;;;;;;;;;;;;31.33;37.82;99226.53;102212;1308;61444;-82
2023/07/26 10:45:42;;;;;;;;;;;;;;;31.32;37.72;99224.77;102219;1311;65585;-81
2023/07/26 10:48:27;;;;;;;;;;;;;;;31.32;37.68;99225.14;102081;1310;61535;-82
2023/07/26 10:50:57;;;;;;;;;;;;;;;31.32;37.77;99219.69;101890;1309;61320;-83
2023/07/26 10:53:37;;;;;;;;;;;;;;;31.32;37.71;99218.05;102117;1311;63914;-82
2023/07/26 10:56:12;;;;;;;;;;;;;;;31.31;37.77;99215.58;102041;1307;65792;-82
2023/07/26 10:58:50;;;;;;;;;;;;;;;31.31;37.70;99219.23;101877;1311;61317;-82
2023/07/26 11:01:31;;;;;;;;;;;;;;;31.32;37.74;99216.13;102117;1309;61509;-82
2023/07/26 11:03:59;;;;;;;;;;;;;;;31.31;37.77;99209.46;102737;1308;63652;-82
2023/07/26 11:07:00;;;;;;;;;;;;;;;31.31;37.78;99209.13;102287;1308;66995;-82
2023/07/26 11:09:29;;;;;;;;;;;;;;;31.31;37.83;99213.71;102019;1308;61423;-82
2023/07/26 11:12:03;;;;;;;;;;;;;;;31.31;37.69;99213.55;102197;1309;61294;-82
2023/07/26 11:14:33;;;;;;;;;;;;;;;31.31;37.74;99214.59;101950;1313;63977;-82
2023/07/26 11:17:01;;;;;;;;;;;;;;;31.31;37.73;99211.83;101979;1314;65930;-82
2023/07/26 11:19:27;;;;;;;;;;;;;;;31.32;37.69;99202.66;102050;1309;61343;-82
2023/07/26 11:22:02;;;;;;;;;;;;;;;31.31;37.72;99198.05;102378;1310;61551;-82
2023/07/26 11:24:28;;;;;;;;;;;;;;;31.31;37.66;99196.55;102240;1313;64051;-82
2023/07/26 11:26:53;;;;;;;;;;;;;;;31.31;37.67;99195.45;102142;1312;61495;-82
2023/07/26 11:29:18;;;;;;;;;;;;;;;31.31;37.67;99191.27;101982;1311;61468;-82
2023/07/26 11:31:44;;;;;;;;;;;;;;;31.32;37.83;99184.30;101933;1309;61540;-82
2023/07/26 11:34:14;;;;;;;;;;;;;;;31.32;37.63;99177.77;101977;1312;61435;-81
2023/07/26 11:36:39;;;;;;;;;;;;;;;31.32;37.63;99177.75;101926;1310;63914;-82
2023/07/26 11:39:05;;;;;;;;;;;;;;;31.31;37.59;99182.54;101959;1314;61560;-82
2023/07/26 11:41:31;;;;;;;;;;;;;;;31.32;37.76;99181.02;101911;1311;61438;-82
2023/07/26 11:43:58;;;;;;;;;;;;;;;31.31;37.50;99175.24;102040;1303;61417;-82
2023/07/26 11:46:27;;;;;;;;;;;;;;;31.32;37.65;99175.19;102743;1302;61317;-81
2023/07/26 11:48:53;;;;;;;;;;;;;;;31.32;37.66;99176.16;102733;1303;65869;-82
2023/07/26 11:51:22;;;;;;;;;;;;;;;31.31;37.61;99172.77;102682;1305;61176;-81
2023/07/26 11:53:47;;;;;;;;;;;;;;;31.31;37.59;99168.80;102498;1302;61428;-81
2023/07/26 11:56:13;;;;;;;;;;;;;;;31.31;37.62;99177.09;102462;1316;62391;-82
2023/07/26 11:58:40;;;;;;;;;;;;;;;31.31;37.56;99174.79;102477;1302;61425;-82
2023/07/26 12:01:05;;;;;;;;;;;;;;;31.31;37.57;99175.70;102417;1301;61441;-82
2023/07/26 12:03:31;;;;;;;;;;;;;;;31.31;37.55;99174.45;102327;1302;61431;-82
2023/07/26 12:05:57;;;;;;;;;;;;;;;31.31;37.50;99175.23;102307;1308;61345;-82
2023/07/26 12:08:22;;;;;;;;;;;;;;;31.32;37.51;99174.65;102342;1302;63625;-82
2023/07/26 12:10:48;;;;;;;;;;;;;;;31.32;37.52;99175.56;102446;1306;61415;-82
2023/07/26 12:13:20;;;;;;;;;;;;;;;31.31;37.53;99175.07;102277;1301;61397;-82
2023/07/26 12:15:55;;;;;;;;;;;;;;;31.32;37.56;99172.26;102290;1303;61388;-82
2023/07/26 12:18:21;;;;;;;;;;;;;;;31.32;37.60;99168.86;102285;1303;63978;-82
2023/07/26 12:20:56;;;;;;;;;;;;;;;31.32;37.58;99173.02;102360;1312;65894;-82
2023/07/26 12:23:22;;;;;;;;;;;;;;;31.32;37.56;99166.30;102305;1305;61772;-82
2023/07/26 12:25:52;;;;;;;;;;;;;;;31.32;37.52;99158.62;102309;1302;61390;-82
2023/07/26 12:28:18;;;;;;;;;;;;;;;31.32;37.49;99155.35;102331;1305;63910;-82
2023/07/26 12:30:56;;;;;;;;;;;;;;;31.32;37.55;99157.33;102379;1306;61498;-82
2023/07/26 12:33:22;;;;;;;;;;;;;;;31.32;37.50;99160.18;102305;1303;61336;-82